Time;durP1;ratioP1;P1;durP2;ratioP2;P2;SDS_P1;SDS_P2;PMS_P1;PMS_P2;Temp;Humidity;BMP_temperature;BMP_pressure;BME280_temperature;BME280_humidity;BME280_pressure;Samples;Min_cycle;Max_cycle;Signal;HPM_P1;HPM_P2
2022/03/20 00:00:00;;;;;;;;;;;;;;;;;;1050724;28;4036;-74
2022/03/20 00:00:31;;;;;;;;;;;;;;;;;;1051796;28;1692;-74
2022/03/20 00:01:13;;;;;;;;;;;;;;;;;;1051247;28;4253;-75
2022/03/20 00:01:43;;;;;;;;;;;;;;;;;;1052149;28;2579;-74
2022/03/20 00:02:14;;;;;;;;;;;;;;;;;;1052650;28;4151;-74
2022/03/20 00:02:45;;;;;;;;;;;;;;;;;;1053142;28;1920;-75
2022/03/20 00:03:16;;;;;;;;;;;;;;;;;;1051228;28;3834;-74
2022/03/20 00:03:46;;;;;;;;;;;;;;;;;;1051669;28;2964;-74
2022/03/20 00:04:16;;;;;;;;;;;;;;;;;;1051737;28;3804;-75
2022/03/20 00:04:47;;;;;;;;;;;;;;;;;;1050782;28;2379;-74
2022/03/20 00:05:17;;;;;;;;;;;;;;;;;;1051868;28;3858;-75
2022/03/20 00:05:48;;;;;;;;;;;;;;;;;;1051083;28;3858;-74
2022/03/20 00:06:18;;;;;;;;;;;;;;;;;;1052985;28;2563;-75
2022/03/20 00:06:49;;;;;;;;;;;;;;;;;;1050609;28;3842;-74
2022/03/20 00:07:19;;;;;;;;;;;;;;;;;;1052191;28;2480;-75
2022/03/20 00:07:49;;;;;;;;;;;;;;;;;;1051027;28;3947;-74
2022/03/20 00:08:20;;;;;;;;;;;;;;;;;;1051261;28;2034;-75
2022/03/20 00:08:52;;;;;;;;;;;;;;;;;;1050889;28;3820;-75
2022/03/20 00:09:22;;;;;;;;;;;;;;;;;;1050840;28;2773;-74
2022/03/20 00:09:52;;;;;;;;;;;;;;;;;;1051833;28;3834;-74
2022/03/20 00:10:23;;;;;;;;;;;;;;;;;;1052546;28;2130;-75
2022/03/20 00:10:54;;;;;;;;;;;;;;;;;;1051430;28;3803;-75
2022/03/20 00:11:27;;;;;;;;;;;;;;;;;;1051475;28;2876;-74
2022/03/20 00:12:04;;;;;;;;;;;;;;;;;;1051377;28;3796;-75
2022/03/20 00:12:35;;;;;;;;;;;;;;;;;;1052492;28;2515;-75
2022/03/20 00:13:07;;;;;;;;;;;;;;;;;;1053143;28;3851;-75
2022/03/20 00:13:39;;;;;;;;;;;;;;;;;;1053714;28;2766;-75
2022/03/20 00:14:09;;;;;;;;;;;;;;;;;;1053169;28;3806;-74
2022/03/20 00:14:40;;;;;;;;;;;;;;;;;;1051759;28;1973;-75
2022/03/20 00:15:10;;;;;;;;;;;;;;;;;;1051337;28;3972;-75
2022/03/20 00:15:41;;;;;;;;;;;;;;;;;;1051876;28;2503;-75
2022/03/20 00:16:11;;;;;;;;;;;;;;;;;;1050756;28;4035;-75
2022/03/20 00:16:41;;;;;;;;;;;;;;;;;;1050998;28;2799;-74
2022/03/20 00:17:13;;;;;;;;;;;;;;;;;;1051222;28;3941;-75
2022/03/20 00:17:43;;;;;;;;;;;;;;;;;;1052333;28;1614;-74
2022/03/20 00:18:14;;;;;;;;;;;;;;;;;;1051790;28;3991;-75
2022/03/20 00:18:44;;;;;;;;;;;;;;;;;;1050988;28;2919;-75
2022/03/20 00:19:15;;;;;;;;;;;;;;;;;;1045116;28;3992;-75
2022/03/20 00:19:45;;;;;;;;;;;;;;;;;;1045528;28;2477;-75
2022/03/20 00:20:16;;;;;;;;;;;;;;;;;;1046018;28;4056;-75
2022/03/20 00:20:48;;;;;;;;;;;;;;;;;;1050507;28;1726;-75
2022/03/20 00:21:18;;;;;;;;;;;;;;;;;;1051980;28;3792;-75
2022/03/20 00:21:48;;;;;;;;;;;;;;;;;;1051342;27;3946;-75
2022/03/20 00:22:18;;;;;;;;;;;;;;;;;;1053122;28;2939;-75
2022/03/20 00:22:49;;;;;;;;;;;;;;;;;;1053779;28;3816;-75
2022/03/20 00:23:19;;;;;;;;;;;;;;;;;;1053926;28;2645;-75
2022/03/20 00:23:49;;;;;;;;;;;;;;;;;;1052850;28;4005;-76
2022/03/20 00:24:21;;;;;;;;;;;;;;;;;;1054763;28;1603;-75
2022/03/20 00:24:51;;;;;;;;;;;;;;;;;;1050868;28;4012;-76
2022/03/20 00:25:21;;;;;;;;;;;;;;;;;;1051583;28;1680;-75
2022/03/20 00:25:52;;;;;;;;;;;;;;;;;;1050779;28;4029;-75
2022/03/20 00:26:23;;;;;;;;;;;;;;;;;;1051710;28;2266;-75
2022/03/20 00:26:56;;;;;;;;;;;;;;;;;;1051060;28;3824;-76
2022/03/20 00:27:27;;;;;;;;;;;;;;;;;;1050614;28;2838;-75
2022/03/20 00:27:57;;;;;;;;;;;;;;;;;;1050813;28;3951;-75
2022/03/20 00:28:27;;;;;;;;;;;;;;;;;;1051235;28;2213;-75
2022/03/20 00:29:00;;;;;;;;;;;;;;;;;;1051270;28;6127;-75
2022/03/20 00:29:30;;;;;;;;;;;;;;;;;;1052499;28;2739;-75
2022/03/20 00:30:01;;;;;;;;;;;;;;;;;;1051131;28;4095;-75
2022/03/20 00:30:32;;;;;;;;;;;;;;;;;;1051781;28;1793;-76
2022/03/20 00:31:03;;;;;;;;;;;;;;;;;;1052602;28;4044;-75
2022/03/20 00:31:34;;;;;;;;;;;;;;;;;;1054000;28;2693;-76
2022/03/20 00:32:05;;;;;;;;;;;;;;;;;;1053888;28;3765;-76
2022/03/20 00:32:35;;;;;;;;;;;;;;;;;;1053843;28;2458;-76
2022/03/20 00:33:06;;;;;;;;;;;;;;;;;;1051060;28;3966;-76
2022/03/20 00:33:36;;;;;;;;;;;;;;;;;;1051763;28;2767;-75
2022/03/20 00:34:07;;;;;;;;;;;;;;;;;;1051098;28;3964;-76
2022/03/20 00:34:38;;;;;;;;;;;;;;;;;;1052201;28;2444;-76
2022/03/20 00:35:09;;;;;;;;;;;;;;;;;;1051054;28;3968;-75
2022/03/20 00:35:39;;;;;;;;;;;;;;;;;;1051469;28;1681;-76
2022/03/20 00:36:09;;;;;;;;;;;;;;;;;;1052402;28;4056;-76
2022/03/20 00:36:39;;;;;;;;;;;;;;;;;;1051726;28;2406;-75
2022/03/20 00:37:10;;;;;;;;;;;;;;;;;;1053163;28;3972;-75
2022/03/20 00:37:40;;;;;;;;;;;;;;;;;;1051520;28;1768;-76
2022/03/20 00:38:10;;;;;;;;;;;;;;;;;;1050685;28;3806;-75
2022/03/20 00:38:41;;;;;;;;;;;;;;;;;;1051688;28;1963;-76
2022/03/20 00:39:11;;;;;;;;;;;;;;;;;;1050924;28;3859;-75
2022/03/20 00:39:41;;;;;;;;;;;;;;;;;;1051860;28;2620;-76
2022/03/20 00:40:12;;;;;;;;;;;;;;;;;;1050302;28;3805;-76
2022/03/20 00:40:43;;;;;;;;;;;;;;;;;;1051514;28;2240;-75
2022/03/20 00:41:14;;;;;;;;;;;;;;;;;;1050943;28;3802;-76
2022/03/20 00:41:58;;;;;;;;;;;;;;;;;;1051262;28;3274;-76
2022/03/20 00:42:35;;;;;;;;;;;;;;;;;;1055641;27;3733;-75
2022/03/20 00:43:06;;;;;;;;;;;;;;;;;;1051771;28;3820;-76
2022/03/20 00:43:38;;;;;;;;;;;;;;;;;;1053952;28;2397;-76
2022/03/20 00:44:08;;;;;;;;;;;;;;;;;;1052716;28;3857;-75
2022/03/20 00:44:38;;;;;;;;;;;;;;;;;;1053841;28;2805;-76
2022/03/20 00:45:09;;;;;;;;;;;;;;;;;;1055562;27;3773;-76
2022/03/20 00:45:39;;;;;;;;;;;;;;;;;;1055725;27;2839;-75
2022/03/20 00:46:10;;;;;;;;;;;;;;;;;;1050588;28;4030;-76
2022/03/20 00:46:40;;;;;;;;;;;;;;;;;;1049952;28;1660;-76
2022/03/20 00:47:11;;;;;;;;;;;;;;;;;;1048901;28;3798;-75
2022/03/20 00:47:41;;;;;;;;;;;;;;;;;;1050045;28;2408;-76
2022/03/20 00:48:11;;;;;;;;;;;;;;;;;;1053240;28;3813;-75
2022/03/20 00:48:42;;;;;;;;;;;;;;;;;;1055951;27;2243;-76
2022/03/20 00:49:12;;;;;;;;;;;;;;;;;;1053988;28;3895;-75
2022/03/20 00:49:42;;;;;;;;;;;;;;;;;;1051291;28;1647;-75
2022/03/20 00:50:12;;;;;;;;;;;;;;;;;;1048843;28;3852;-75
2022/03/20 00:50:43;;;;;;;;;;;;;;;;;;1050246;28;2468;-76
2022/03/20 00:51:13;;;;;;;;;;;;;;;;;;1052566;28;3847;-75
2022/03/20 00:51:44;;;;;;;;;;;;;;;;;;1055960;28;2256;-75
2022/03/20 00:52:14;;;;;;;;;;;;;;;;;;1056051;27;3786;-75
2022/03/20 00:52:45;;;;;;;;;;;;;;;;;;1056643;27;2497;-74
2022/03/20 00:53:16;;;;;;;;;;;;;;;;;;1054967;27;3714;-74
2022/03/20 00:53:46;;;;;;;;;;;;;;;;;;1055439;27;1703;-75
2022/03/20 00:54:16;;;;;;;;;;;;;;;;;;1056384;27;3903;-74
2022/03/20 00:54:47;;;;;;;;;;;;;;;;;;1054977;27;2785;-74
2022/03/20 00:55:17;;;;;;;;;;;;;;;;;;1055139;27;3946;-73
2022/03/20 00:55:48;;;;;;;;;;;;;;;;;;1055436;27;3761;-74
2022/03/20 00:56:18;;;;;;;;;;;;;;;;;;1056167;28;2449;-77
2022/03/20 00:56:48;;;;;;;;;;;;;;;;;;1050456;28;3853;-77
2022/03/20 00:57:19;;;;;;;;;;;;;;;;;;1051857;28;2744;-74
2022/03/20 00:57:49;;;;;;;;;;;;;;;;;;1051255;28;3981;-74
2022/03/20 00:58:20;;;;;;;;;;;;;;;;;;1051402;28;2542;-77
2022/03/20 00:58:50;;;;;;;;;;;;;;;;;;1054927;28;3828;-74
2022/03/20 00:59:21;;;;;;;;;;;;;;;;;;1055909;27;2245;-74
2022/03/20 00:59:51;;;;;;;;;;;;;;;;;;1055268;27;3817;-73
2022/03/20 01:00:21;;;;;;;;;;;;;;;;;;1055852;28;1580;-76
2022/03/20 01:00:51;;;;;;;;;;;;;;;;;;1054830;27;3855;-76
2022/03/20 01:01:22;;;;;;;;;;;;;;;;;;1056084;27;3368;-76
2022/03/20 01:01:52;;;;;;;;;;;;;;;;;;1055589;27;3971;-76
2022/03/20 01:02:23;;;;;;;;;;;;;;;;;;1056091;27;2381;-76
2022/03/20 01:02:53;;;;;;;;;;;;;;;;;;1054341;27;3964;-76
2022/03/20 01:03:24;;;;;;;;;;;;;;;;;;1056409;27;2447;-76
2022/03/20 01:03:54;;;;;;;;;;;;;;;;;;1050362;28;4055;-76
2022/03/20 01:04:25;;;;;;;;;;;;;;;;;;1051152;28;2550;-76
2022/03/20 01:04:55;;;;;;;;;;;;;;;;;;1046954;28;3963;-78
2022/03/20 01:05:26;;;;;;;;;;;;;;;;;;1043386;28;1378;-76
2022/03/20 01:05:56;;;;;;;;;;;;;;;;;;1047284;28;3851;-77
2022/03/20 01:06:26;;;;;;;;;;;;;;;;;;1048292;28;1113;-76
2022/03/20 01:07:00;;;;;;;;;;;;;;;;;;1050501;28;4274;-76
2022/03/20 01:07:30;;;;;;;;;;;;;;;;;;1051182;28;3062;-76
2022/03/20 01:08:01;;;;;;;;;;;;;;;;;;1050733;28;3868;-76
2022/03/20 01:08:32;;;;;;;;;;;;;;;;;;1051084;28;2654;-76
2022/03/20 01:09:02;;;;;;;;;;;;;;;;;;1051150;28;3859;-76
2022/03/20 01:09:33;;;;;;;;;;;;;;;;;;1055557;28;1693;-76
2022/03/20 01:10:04;;;;;;;;;;;;;;;;;;1056006;28;3777;-75
2022/03/20 01:10:34;;;;;;;;;;;;;;;;;;1055961;27;2201;-76
2022/03/20 01:11:06;;;;;;;;;;;;;;;;;;1054480;27;3799;-76
2022/03/20 01:11:38;;;;;;;;;;;;;;;;;;1055713;27;1645;-76
2022/03/20 01:12:15;;;;;;;;;;;;;;;;;;1050600;28;3956;-75
2022/03/20 01:12:46;;;;;;;;;;;;;;;;;;1051169;28;2160;-75
2022/03/20 01:13:16;;;;;;;;;;;;;;;;;;1046400;28;3757;-75
2022/03/20 01:13:46;;;;;;;;;;;;;;;;;;1046362;28;2255;-75
2022/03/20 01:14:17;;;;;;;;;;;;;;;;;;1051265;28;3941;-75
2022/03/20 01:14:47;;;;;;;;;;;;;;;;;;1050553;28;2220;-75
2022/03/20 01:15:18;;;;;;;;;;;;;;;;;;1054880;28;3984;-76
2022/03/20 01:15:49;;;;;;;;;;;;;;;;;;1051929;28;3817;-75
2022/03/20 01:16:19;;;;;;;;;;;;;;;;;;1053134;28;1888;-75
2022/03/20 01:16:49;;;;;;;;;;;;;;;;;;1054000;28;3970;-75
2022/03/20 01:17:20;;;;;;;;;;;;;;;;;;1055256;28;2172;-76
2022/03/20 01:17:50;;;;;;;;;;;;;;;;;;1050127;28;3813;-75
2022/03/20 01:18:20;;;;;;;;;;;;;;;;;;1047296;28;2724;-76
2022/03/20 01:18:51;;;;;;;;;;;;;;;;;;1047228;28;4043;-76
2022/03/20 01:19:22;;;;;;;;;;;;;;;;;;1047123;28;1475;-75
2022/03/20 01:19:52;;;;;;;;;;;;;;;;;;1052955;28;3978;-75
2022/03/20 01:20:23;;;;;;;;;;;;;;;;;;1057433;27;1659;-75
2022/03/20 01:20:53;;;;;;;;;;;;;;;;;;1054538;28;4006;-75
2022/03/20 01:21:24;;;;;;;;;;;;;;;;;;1055764;28;2197;-76
2022/03/20 01:21:54;;;;;;;;;;;;;;;;;;1054858;28;3871;-76
2022/03/20 01:22:25;;;;;;;;;;;;;;;;;;1055618;28;2485;-76
2022/03/20 01:22:55;;;;;;;;;;;;;;;;;;1056396;28;3797;-76
2022/03/20 01:23:25;;;;;;;;;;;;;;;;;;1054917;28;2866;-75
2022/03/20 01:23:56;;;;;;;;;;;;;;;;;;1052798;28;3795;-75
2022/03/20 01:24:28;;;;;;;;;;;;;;;;;;1054127;28;2074;-75
2022/03/20 01:24:58;;;;;;;;;;;;;;;;;;1044599;28;3836;-75
2022/03/20 01:25:30;;;;;;;;;;;;;;;;;;1046354;28;1652;-75
2022/03/20 01:26:00;;;;;;;;;;;;;;;;;;1045620;28;3824;-75
2022/03/20 01:26:30;;;;;;;;;;;;;;;;;;1045842;28;2280;-75
2022/03/20 01:27:01;;;;;;;;;;;;;;;;;;1050768;28;4015;-76
2022/03/20 01:27:31;;;;;;;;;;;;;;;;;;1055507;28;2689;-77
2022/03/20 01:28:02;;;;;;;;;;;;;;;;;;1053083;28;4039;-76
2022/03/20 01:28:32;;;;;;;;;;;;;;;;;;1046698;28;1609;-75
2022/03/20 01:29:04;;;;;;;;;;;;;;;;;;1045743;28;3838;-75
2022/03/20 01:29:35;;;;;;;;;;;;;;;;;;1047260;28;2715;-75
2022/03/20 01:30:06;;;;;;;;;;;;;;;;;;1050150;28;3999;-75
2022/03/20 01:30:36;;;;;;;;;;;;;;;;;;1051084;28;1835;-76
2022/03/20 01:31:10;;;;;;;;;;;;;;;;;;1054270;27;3774;-76
2022/03/20 01:31:40;;;;;;;;;;;;;;;;;;1055132;28;2508;-76
2022/03/20 01:32:10;;;;;;;;;;;;;;;;;;1056000;28;3838;-75
2022/03/20 01:32:41;;;;;;;;;;;;;;;;;;1057280;28;2235;-75
2022/03/20 01:33:11;;;;;;;;;;;;;;;;;;1055148;28;3770;-75
2022/03/20 01:33:41;;;;;;;;;;;;;;;;;;1052573;28;2552;-75
2022/03/20 01:34:12;;;;;;;;;;;;;;;;;;1051927;28;3942;-75
2022/03/20 01:34:42;;;;;;;;;;;;;;;;;;1051414;28;2823;-76
2022/03/20 01:35:12;;;;;;;;;;;;;;;;;;1048205;28;3803;-75
2022/03/20 01:35:43;;;;;;;;;;;;;;;;;;1054293;28;2695;-76
2022/03/20 01:36:13;;;;;;;;;;;;;;;;;;1052851;28;4119;-75
2022/03/20 01:36:43;;;;;;;;;;;;;;;;;;1053157;28;2686;-75
2022/03/20 01:37:14;;;;;;;;;;;;;;;;;;1053177;28;3808;-76
2022/03/20 01:37:44;;;;;;;;;;;;;;;;;;1050451;28;1406;-76
2022/03/20 01:38:19;;;;;;;;;;;;;;;;;;1049138;28;3813;-76
2022/03/20 01:38:50;;;;;;;;;;;;;;;;;;1049886;28;3863;-75
2022/03/20 01:39:23;;;;;;;;;;;;;;;;;;1054734;28;2489;-76
2022/03/20 01:39:53;;;;;;;;;;;;;;;;;;1055737;28;3832;-75
2022/03/20 01:40:25;;;;;;;;;;;;;;;;;;1056068;28;1526;-75
2022/03/20 01:40:55;;;;;;;;;;;;;;;;;;1052475;28;4073;-75
2022/03/20 01:41:26;;;;;;;;;;;;;;;;;;1051738;28;2825;-76
2022/03/20 01:42:10;;;;;;;;;;;;;;;;;;1053391;28;3858;-75
2022/03/20 01:42:54;;;;;;;;;;;;;;;;;;1048293;28;1858;-75
2022/03/20 01:43:24;;;;;;;;;;;;;;;;;;1046606;28;4201;-76
2022/03/20 01:43:56;;;;;;;;;;;;;;;;;;1046627;28;3940;-75
2022/03/20 01:44:32;;;;;;;;;;;;;;;;;;1046878;28;2546;-75
2022/03/20 01:45:17;;;;;;;;;;;;;;;;;;1046681;28;4014;-75
2022/03/20 01:45:47;;;;;;;;;;;;;;;;;;1046654;28;2830;-75
2022/03/20 01:46:17;;;;;;;;;;;;;;;;;;1047626;28;4334;-75
2022/03/20 01:46:48;;;;;;;;;;;;;;;;;;1046613;28;4091;-76
2022/03/20 01:47:18;;;;;;;;;;;;;;;;;;1047189;28;2768;-76
2022/03/20 01:47:49;;;;;;;;;;;;;;;;;;1046471;28;3786;-75
2022/03/20 01:48:20;;;;;;;;;;;;;;;;;;1049244;28;1712;-75
2022/03/20 01:48:50;;;;;;;;;;;;;;;;;;1047941;28;3831;-76
2022/03/20 01:49:21;;;;;;;;;;;;;;;;;;1048962;28;2931;-75
2022/03/20 01:49:51;;;;;;;;;;;;;;;;;;1049783;28;3939;-75
2022/03/20 01:50:25;;;;;;;;;;;;;;;;;;1047517;28;1585;-75
2022/03/20 01:50:56;;;;;;;;;;;;;;;;;;1046400;28;3796;-75
2022/03/20 01:52:23;;;;;;;;;;;;;;;;;;1050420;28;3795;-75
2022/03/20 01:52:53;;;;;;;;;;;;;;;;;;1046963;28;3793;-75
2022/03/20 01:53:26;;;;;;;;;;;;;;;;;;1047508;28;3071;-76
2022/03/20 01:53:56;;;;;;;;;;;;;;;;;;1047744;28;3785;-75
2022/03/20 01:54:26;;;;;;;;;;;;;;;;;;1048171;28;2783;-75
2022/03/20 01:54:57;;;;;;;;;;;;;;;;;;1050141;28;3780;-76
2022/03/20 01:55:28;;;;;;;;;;;;;;;;;;1050598;28;3099;-76
2022/03/20 01:55:59;;;;;;;;;;;;;;;;;;1050848;28;4007;-76
2022/03/20 01:56:32;;;;;;;;;;;;;;;;;;1047443;28;1806;-75
2022/03/20 01:57:02;;;;;;;;;;;;;;;;;;1047221;28;4052;-75
2022/03/20 01:57:37;;;;;;;;;;;;;;;;;;1046481;28;2250;-76
2022/03/20 01:58:07;;;;;;;;;;;;;;;;;;1046361;28;3817;-77
2022/03/20 01:58:38;;;;;;;;;;;;;;;;;;1046292;28;2420;-76
2022/03/20 01:59:08;;;;;;;;;;;;;;;;;;1046274;28;3819;-75
2022/03/20 01:59:39;;;;;;;;;;;;;;;;;;1047531;28;1637;-75
2022/03/20 02:00:10;;;;;;;;;;;;;;;;;;1046249;28;3767;-75
2022/03/20 02:00:40;;;;;;;;;;;;;;;;;;1047669;28;3099;-75
2022/03/20 02:01:12;;;;;;;;;;;;;;;;;;1046785;28;3818;-75
2022/03/20 02:01:42;;;;;;;;;;;;;;;;;;1047371;28;1672;-76
2022/03/20 02:02:13;;;;;;;;;;;;;;;;;;1046053;28;3950;-76
2022/03/20 02:02:43;;;;;;;;;;;;;;;;;;1047525;28;1868;-75
2022/03/20 02:03:14;;;;;;;;;;;;;;;;;;1046178;28;3769;-76
2022/03/20 02:03:44;;;;;;;;;;;;;;;;;;1048647;28;2674;-76
2022/03/20 02:04:15;;;;;;;;;;;;;;;;;;1047555;28;3784;-75
2022/03/20 02:04:45;;;;;;;;;;;;;;;;;;1049277;28;1824;-75
2022/03/20 02:05:15;;;;;;;;;;;;;;;;;;1045750;28;4000;-75
2022/03/20 02:05:45;;;;;;;;;;;;;;;;;;1046907;28;1464;-75
2022/03/20 02:06:17;;;;;;;;;;;;;;;;;;1047461;28;3794;-76
2022/03/20 02:06:48;;;;;;;;;;;;;;;;;;1046761;28;3806;-75
2022/03/20 02:07:20;;;;;;;;;;;;;;;;;;1047735;28;1969;-76
2022/03/20 02:07:50;;;;;;;;;;;;;;;;;;1046844;28;3946;-76
2022/03/20 02:08:25;;;;;;;;;;;;;;;;;;1047879;28;1544;-75
2022/03/20 02:08:56;;;;;;;;;;;;;;;;;;1045581;28;3855;-75
2022/03/20 02:09:27;;;;;;;;;;;;;;;;;;1047391;28;2454;-75
2022/03/20 02:09:57;;;;;;;;;;;;;;;;;;1046215;28;3857;-75
2022/03/20 02:10:35;;;;;;;;;;;;;;;;;;1046863;28;2812;-76
2022/03/20 02:11:05;;;;;;;;;;;;;;;;;;1046910;28;3798;-75
2022/03/20 02:11:36;;;;;;;;;;;;;;;;;;1048583;28;2044;-75
2022/03/20 02:12:13;;;;;;;;;;;;;;;;;;1046271;28;4030;-75
2022/03/20 02:12:44;;;;;;;;;;;;;;;;;;1048927;28;2560;-76
2022/03/20 02:13:14;;;;;;;;;;;;;;;;;;1048672;28;3813;-77
2022/03/20 02:13:44;;;;;;;;;;;;;;;;;;1049590;28;2392;-77
2022/03/20 02:14:14;;;;;;;;;;;;;;;;;;1048971;28;3932;-75
2022/03/20 02:14:45;;;;;;;;;;;;;;;;;;1047182;28;2001;-76
2022/03/20 02:15:15;;;;;;;;;;;;;;;;;;1047821;28;3982;-75
2022/03/20 02:15:46;;;;;;;;;;;;;;;;;;1047632;28;1684;-76
2022/03/20 02:16:17;;;;;;;;;;;;;;;;;;1047058;28;4127;-75
2022/03/20 02:16:47;;;;;;;;;;;;;;;;;;1048286;28;2422;-75
2022/03/20 02:17:18;;;;;;;;;;;;;;;;;;1047499;28;5330;-75
2022/03/20 02:17:48;;;;;;;;;;;;;;;;;;1046021;28;3819;-76
2022/03/20 02:18:19;;;;;;;;;;;;;;;;;;1046089;28;1757;-75
2022/03/20 02:18:50;;;;;;;;;;;;;;;;;;1044629;28;3993;-75
2022/03/20 02:19:20;;;;;;;;;;;;;;;;;;1046160;28;2664;-76
2022/03/20 02:19:50;;;;;;;;;;;;;;;;;;1047769;28;3994;-76
2022/03/20 02:20:22;;;;;;;;;;;;;;;;;;1048045;28;2570;-76
2022/03/20 02:20:53;;;;;;;;;;;;;;;;;;1046589;28;3960;-76
2022/03/20 02:21:42;;;;;;;;;;;;;;;;;;1047245;28;1310;-75
2022/03/20 02:22:12;;;;;;;;;;;;;;;;;;1047301;28;3808;-76
2022/03/20 02:22:43;;;;;;;;;;;;;;;;;;1047101;28;3106;-76
2022/03/20 02:23:14;;;;;;;;;;;;;;;;;;1041977;28;3946;-76
2022/03/20 02:23:45;;;;;;;;;;;;;;;;;;1042801;28;2775;-75
2022/03/20 02:24:28;;;;;;;;;;;;;;;;;;1044015;28;4001;-75
2022/03/20 02:25:04;;;;;;;;;;;;;;;;;;1046500;28;3809;-76
2022/03/20 02:25:34;;;;;;;;;;;;;;;;;;1049625;28;3038;-76
2022/03/20 02:26:04;;;;;;;;;;;;;;;;;;1046849;28;4014;-75
2022/03/20 02:26:35;;;;;;;;;;;;;;;;;;1047001;28;2214;-75
2022/03/20 02:27:09;;;;;;;;;;;;;;;;;;1045470;28;3993;-75
2022/03/20 02:27:39;;;;;;;;;;;;;;;;;;1046727;28;2074;-76
2022/03/20 02:28:10;;;;;;;;;;;;;;;;;;1045889;28;3989;-75
2022/03/20 02:28:40;;;;;;;;;;;;;;;;;;1047098;28;1870;-75
2022/03/20 02:29:10;;;;;;;;;;;;;;;;;;1046665;28;4186;-75
2022/03/20 02:29:41;;;;;;;;;;;;;;;;;;1047721;28;1657;-75
2022/03/20 02:30:15;;;;;;;;;;;;;;;;;;1046322;28;3882;-75
2022/03/20 02:30:46;;;;;;;;;;;;;;;;;;1047847;28;1716;-76
2022/03/20 02:31:17;;;;;;;;;;;;;;;;;;1047651;28;3949;-76
2022/03/20 02:31:48;;;;;;;;;;;;;;;;;;1046961;28;3766;-76
2022/03/20 02:32:19;;;;;;;;;;;;;;;;;;1048304;28;1713;-76
2022/03/20 02:32:51;;;;;;;;;;;;;;;;;;1048165;28;3981;-75
2022/03/20 02:33:27;;;;;;;;;;;;;;;;;;1047787;28;1889;-75
2022/03/20 02:33:57;;;;;;;;;;;;;;;;;;1047517;28;3831;-75
2022/03/20 02:34:30;;;;;;;;;;;;;;;;;;1051433;28;2746;-75
2022/03/20 02:35:05;;;;;;;;;;;;;;;;;;1051398;28;3796;-75
2022/03/20 02:35:35;;;;;;;;;;;;;;;;;;1047559;28;2286;-75
2022/03/20 02:36:06;;;;;;;;;;;;;;;;;;1046597;28;4015;-75
2022/03/20 02:36:43;;;;;;;;;;;;;;;;;;1047031;28;2816;-76
2022/03/20 02:37:14;;;;;;;;;;;;;;;;;;1047069;28;3969;-75
2022/03/20 02:37:51;;;;;;;;;;;;;;;;;;1047570;28;2799;-75
2022/03/20 02:38:22;;;;;;;;;;;;;;;;;;1047570;28;3879;-75
2022/03/20 02:38:52;;;;;;;;;;;;;;;;;;1045955;28;3839;-75
2022/03/20 02:39:22;;;;;;;;;;;;;;;;;;1046533;28;2870;-75
2022/03/20 02:39:54;;;;;;;;;;;;;;;;;;1040547;28;4162;-76
2022/03/20 02:40:24;;;;;;;;;;;;;;;;;;1041301;28;2548;-76
2022/03/20 02:40:55;;;;;;;;;;;;;;;;;;1043163;28;3857;-76
2022/03/20 02:41:26;;;;;;;;;;;;;;;;;;1043525;28;2795;-76
2022/03/20 02:41:59;;;;;;;;;;;;;;;;;;1046966;28;3839;-75
2022/03/20 02:42:37;;;;;;;;;;;;;;;;;;1049007;28;1940;-77
2022/03/20 02:43:14;;;;;;;;;;;;;;;;;;1046485;28;3940;-77
2022/03/20 02:43:51;;;;;;;;;;;;;;;;;;1047763;28;3781;-75
2022/03/20 02:44:41;;;;;;;;;;;;;;;;;;1050244;28;2072;-77
2022/03/20 02:45:12;;;;;;;;;;;;;;;;;;1046704;28;3783;-77
2022/03/20 02:45:43;;;;;;;;;;;;;;;;;;1047822;28;1921;-75
2022/03/20 02:46:13;;;;;;;;;;;;;;;;;;1046112;28;3935;-77
2022/03/20 02:46:44;;;;;;;;;;;;;;;;;;1042037;28;2392;-74
2022/03/20 02:47:15;;;;;;;;;;;;;;;;;;1040654;28;4094;-77
2022/03/20 02:47:46;;;;;;;;;;;;;;;;;;1043082;28;2106;-76
2022/03/20 02:48:16;;;;;;;;;;;;;;;;;;1049534;28;3739;-77
2022/03/20 02:48:47;;;;;;;;;;;;;;;;;;1047962;28;1831;-76
2022/03/20 02:49:18;;;;;;;;;;;;;;;;;;1047711;28;3906;-77
2022/03/20 02:49:50;;;;;;;;;;;;;;;;;;1046395;28;3799;-74
2022/03/20 02:50:38;;;;;;;;;;;;;;;;;;1048374;28;2702;-77
2022/03/20 02:51:08;;;;;;;;;;;;;;;;;;1047412;28;3937;-77
2022/03/20 02:51:39;;;;;;;;;;;;;;;;;;1051224;28;1757;-77
2022/03/20 02:52:09;;;;;;;;;;;;;;;;;;1049350;28;3787;-76
2022/03/20 02:52:39;;;;;;;;;;;;;;;;;;1050687;28;1706;-76
2022/03/20 02:53:11;;;;;;;;;;;;;;;;;;1050025;28;3794;-77
2022/03/20 02:53:41;;;;;;;;;;;;;;;;;;1047688;28;2078;-77
2022/03/20 02:54:12;;;;;;;;;;;;;;;;;;1047335;28;3945;-77
2022/03/20 02:54:42;;;;;;;;;;;;;;;;;;1048246;28;2304;-76
2022/03/20 02:55:13;;;;;;;;;;;;;;;;;;1046834;28;3916;-76
2022/03/20 02:55:45;;;;;;;;;;;;;;;;;;1048039;28;1885;-76
2022/03/20 02:56:15;;;;;;;;;;;;;;;;;;1047195;28;4059;-77
2022/03/20 02:56:45;;;;;;;;;;;;;;;;;;1046882;28;2803;-76
2022/03/20 02:57:16;;;;;;;;;;;;;;;;;;1045433;28;3976;-77
2022/03/20 02:57:47;;;;;;;;;;;;;;;;;;1041640;28;1909;-77
2022/03/20 02:58:18;;;;;;;;;;;;;;;;;;1045107;28;3749;-76
2022/03/20 02:58:50;;;;;;;;;;;;;;;;;;1044073;28;4487;-74
2022/03/20 02:59:21;;;;;;;;;;;;;;;;;;1047552;28;2044;-77
2022/03/20 02:59:51;;;;;;;;;;;;;;;;;;1049003;28;4008;-77
2022/03/20 03:00:25;;;;;;;;;;;;;;;;;;1049300;28;2600;-76
2022/03/20 03:00:57;;;;;;;;;;;;;;;;;;1050039;28;3776;-74
2022/03/20 03:01:27;;;;;;;;;;;;;;;;;;1049919;28;2420;-78
2022/03/20 03:01:59;;;;;;;;;;;;;;;;;;1047090;28;3834;-77
2022/03/20 03:02:31;;;;;;;;;;;;;;;;;;1047792;28;1653;-77
2022/03/20 03:03:02;;;;;;;;;;;;;;;;;;1047010;28;3774;-77
2022/03/20 03:03:32;;;;;;;;;;;;;;;;;;1048131;28;1716;-76
2022/03/20 03:04:02;;;;;;;;;;;;;;;;;;1047035;28;3774;-77
2022/03/20 03:04:32;;;;;;;;;;;;;;;;;;1047642;28;2943;-77
2022/03/20 03:05:03;;;;;;;;;;;;;;;;;;1047082;28;3861;-74
2022/03/20 03:05:33;;;;;;;;;;;;;;;;;;1047570;28;2612;-77
2022/03/20 03:06:07;;;;;;;;;;;;;;;;;;1047552;28;4021;-78
2022/03/20 03:06:37;;;;;;;;;;;;;;;;;;1045174;28;3020;-78
2022/03/20 03:07:08;;;;;;;;;;;;;;;;;;1046521;28;3762;-77
2022/03/20 03:10:55;;;;;;;;;;;;;;;;;;1046764;28;3814;-76
2022/03/20 03:11:26;;;;;;;;;;;;;;;;;;1050217;28;2158;-76
2022/03/20 03:11:58;;;;;;;;;;;;;;;;;;1046392;28;3886;-76
2022/03/20 03:12:28;;;;;;;;;;;;;;;;;;1045798;28;2430;-76
2022/03/20 03:12:58;;;;;;;;;;;;;;;;;;1046077;28;3956;-76
2022/03/20 03:13:34;;;;;;;;;;;;;;;;;;1047634;28;2042;-76
2022/03/20 03:15:18;;;;;;;;;;;;;;;;;;1047418;28;3898;-76
2022/03/20 03:15:19;;;;;;;;;;;;;;;;;;1048914;28;3767;-77
2022/03/20 03:15:53;;;;;;;;;;;;;;;;;;1049008;28;3943;-76
2022/03/20 03:16:23;;;;;;;;;;;;;;;;;;1049278;28;2826;-76
2022/03/20 03:16:54;;;;;;;;;;;;;;;;;;1048743;28;3819;-76
2022/03/20 03:17:29;;;;;;;;;;;;;;;;;;1045547;28;2474;-76
2022/03/20 03:18:00;;;;;;;;;;;;;;;;;;1042264;28;3979;-76
2022/03/20 03:18:31;;;;;;;;;;;;;;;;;;1043961;28;1708;-76
2022/03/20 03:19:02;;;;;;;;;;;;;;;;;;1040318;28;3795;-76
2022/03/20 03:19:32;;;;;;;;;;;;;;;;;;1045470;28;2932;-76
2022/03/20 03:20:02;;;;;;;;;;;;;;;;;;1049586;28;3816;-76
2022/03/20 03:20:33;;;;;;;;;;;;;;;;;;1050441;28;2541;-76
2022/03/20 03:21:03;;;;;;;;;;;;;;;;;;1049693;28;3813;-76
2022/03/20 03:21:34;;;;;;;;;;;;;;;;;;1050338;28;1818;-77
2022/03/20 03:22:04;;;;;;;;;;;;;;;;;;1049298;28;3812;-76
2022/03/20 03:22:34;;;;;;;;;;;;;;;;;;1047746;28;1914;-76
2022/03/20 03:23:05;;;;;;;;;;;;;;;;;;1047057;28;4068;-76
2022/03/20 03:23:36;;;;;;;;;;;;;;;;;;1047904;28;1452;-76
2022/03/20 03:24:06;;;;;;;;;;;;;;;;;;1047038;28;3823;-75
2022/03/20 03:24:37;;;;;;;;;;;;;;;;;;1047979;28;2648;-77
2022/03/20 03:25:07;;;;;;;;;;;;;;;;;;1047198;28;3779;-76
2022/03/20 03:25:38;;;;;;;;;;;;;;;;;;1047627;28;2711;-75
2022/03/20 03:26:09;;;;;;;;;;;;;;;;;;1047761;28;3792;-77
2022/03/20 03:26:39;;;;;;;;;;;;;;;;;;1047790;28;2782;-77
2022/03/20 03:27:10;;;;;;;;;;;;;;;;;;1047508;28;3786;-76
2022/03/20 03:27:40;;;;;;;;;;;;;;;;;;1047893;28;2712;-76
2022/03/20 03:28:11;;;;;;;;;;;;;;;;;;1047222;28;3803;-76
2022/03/20 03:28:48;;;;;;;;;;;;;;;;;;1047254;28;3841;-76
2022/03/20 03:29:18;;;;;;;;;;;;;;;;;;1046255;28;2416;-75
2022/03/20 03:29:48;;;;;;;;;;;;;;;;;;1044897;28;4026;-75
2022/03/20 03:30:19;;;;;;;;;;;;;;;;;;1047821;28;1601;-76
2022/03/20 03:30:49;;;;;;;;;;;;;;;;;;1049824;28;3985;-76
2022/03/20 03:31:20;;;;;;;;;;;;;;;;;;1047966;28;1913;-76
2022/03/20 03:31:50;;;;;;;;;;;;;;;;;;1047015;28;3778;-76
2022/03/20 03:32:20;;;;;;;;;;;;;;;;;;1048362;28;2455;-76
2022/03/20 03:32:51;;;;;;;;;;;;;;;;;;1048484;28;3806;-76
2022/03/20 03:33:21;;;;;;;;;;;;;;;;;;1048894;28;2427;-77
2022/03/20 03:35:42;;;;;;;;;;;;;;;;;;1047545;28;3959;-76
2022/03/20 03:36:12;;;;;;;;;;;;;;;;;;1047738;28;3922;-77
2022/03/20 03:36:42;;;;;;;;;;;;;;;;;;1048013;28;2771;-76
2022/03/20 03:37:18;;;;;;;;;;;;;;;;;;1047902;28;3781;-76
2022/03/20 03:37:49;;;;;;;;;;;;;;;;;;1047285;28;3772;-76
2022/03/20 03:38:22;;;;;;;;;;;;;;;;;;1047382;28;1599;-76
2022/03/20 03:38:52;;;;;;;;;;;;;;;;;;1047461;28;3951;-76
2022/03/20 03:39:23;;;;;;;;;;;;;;;;;;1046726;28;3824;-77
2022/03/20 03:39:53;;;;;;;;;;;;;;;;;;1046796;28;4066;-76
2022/03/20 03:40:23;;;;;;;;;;;;;;;;;;1046323;28;1760;-76
2022/03/20 03:40:56;;;;;;;;;;;;;;;;;;1045608;28;3828;-76
2022/03/20 03:41:27;;;;;;;;;;;;;;;;;;1044890;28;2803;-77
2022/03/20 03:41:57;;;;;;;;;;;;;;;;;;1046597;28;3796;-77
2022/03/20 03:42:36;;;;;;;;;;;;;;;;;;1048623;28;2256;-75
2022/03/20 03:43:15;;;;;;;;;;;;;;;;;;1056095;27;4398;-77
2022/03/20 03:43:52;;;;;;;;;;;;;;;;;;1057171;27;3862;-77
2022/03/20 03:44:22;;;;;;;;;;;;;;;;;;1052636;28;2213;-75